createdAt,value
2023-02-14T00:01:26.679Z,65.22
2023-02-14T00:03:54.650Z,65.51
2023-02-14T00:06:22.423Z,59.60
2023-02-14T00:08:52.287Z,54.47
2023-02-14T00:11:20.754Z,52.48
2023-02-14T00:14:07.299Z,52.95
2023-02-14T00:16:35.063Z,53.86
2023-02-14T00:19:05.828Z,54.86
2023-02-14T00:21:36.112Z,55.66
2023-02-14T00:24:06.198Z,57.54
2023-02-14T00:26:34.391Z,57.30
2023-02-14T00:29:02.151Z,57.88
2023-02-14T00:31:30.036Z,58.34
2023-02-14T00:33:57.923Z,58.70
2023-02-14T00:36:25.843Z,59.68
2023-02-14T00:38:53.517Z,60.19
2023-02-14T00:41:21.619Z,60.65
2023-02-14T00:43:53.430Z,60.62
2023-02-14T00:46:22.436Z,61.08
2023-02-14T00:48:50.923Z,61.35
2023-02-14T00:51:19.481Z,61.52
2023-02-14T00:53:48.846Z,61.62
2023-02-14T00:56:18.209Z,61.66
2023-02-14T00:58:46.276Z,62.51
2023-02-14T01:01:15.397Z,65.86
2023-02-14T01:03:43.107Z,65.32
2023-02-14T01:06:10.918Z,60.84
2023-02-14T01:08:38.907Z,54.09
2023-02-14T01:11:10.976Z,52.49
2023-02-14T01:13:39.339Z,52.67
2023-02-14T01:16:09.892Z,53.45
2023-02-14T01:18:38.019Z,54.71
2023-02-14T01:21:20.267Z,55.35
2023-02-14T01:23:52.692Z,56.12
2023-02-14T01:26:21.618Z,56.82
2023-02-14T01:28:49.637Z,57.36
2023-02-14T01:31:23.657Z,57.57
2023-02-14T01:33:52.028Z,58.11
2023-02-14T01:36:23.867Z,58.92
2023-02-14T01:38:52.651Z,59.01
2023-02-14T01:41:20.917Z,58.78
2023-02-14T01:43:51.467Z,59.54
2023-02-14T01:46:19.538Z,59.97
2023-02-14T01:48:47.480Z,59.95
2023-02-14T01:51:16.335Z,60.30
2023-02-14T01:53:44.046Z,60.80
2023-02-14T01:56:22.277Z,63.04
2023-02-14T01:58:52.591Z,65.17
2023-02-14T02:01:20.946Z,59.58
2023-02-14T02:03:53.937Z,55.54
2023-02-14T02:06:26.234Z,55.04
2023-02-14T02:09:02.975Z,55.39
2023-02-14T02:11:31.125Z,55.67
2023-02-14T02:13:58.786Z,56.74
2023-02-14T02:16:38.578Z,57.34
2023-02-14T02:19:12.991Z,57.71
2023-02-14T02:22:05.799Z,58.01
2023-02-14T02:24:45.446Z,58.29
2023-02-14T02:27:29.339Z,59.78
2023-02-14T02:30:48.437Z,59.52
2023-02-14T02:33:54.688Z,59.62
2023-02-14T02:36:46.496Z,59.48
2023-02-14T02:39:53.640Z,61.16
2023-02-14T02:42:32.490Z,60.67
2023-02-14T02:46:03.121Z,61.00
2023-02-14T02:48:44.742Z,61.30
2023-02-14T02:51:39.046Z,61.11
2023-02-14T02:54:13.214Z,60.90
2023-02-14T02:56:53.361Z,61.43
2023-02-14T02:59:30.688Z,61.22
2023-02-14T03:02:18.653Z,61.20
2023-02-14T03:04:56.361Z,61.32
2023-02-14T03:07:37.189Z,61.52
2023-02-14T03:10:14.184Z,61.50
2023-02-14T03:13:00.468Z,61.87
2023-02-14T03:15:32.939Z,62.16
2023-02-14T03:18:00.737Z,63.07
2023-02-14T03:20:55.964Z,67.06
2023-02-14T03:23:29.238Z,64.09
2023-02-14T03:26:08.934Z,57.36
2023-02-14T03:28:48.110Z,54.37
2023-02-14T03:31:30.364Z,54.17
2023-02-14T03:34:09.436Z,56.00
2023-02-14T03:36:58.328Z,56.41
2023-02-14T03:40:00.488Z,56.51
2023-02-14T03:42:35.534Z,56.83
2023-02-14T03:45:06.695Z,57.98
2023-02-14T03:47:36.606Z,58.45
2023-02-14T03:50:17.722Z,59.14
2023-02-14T03:52:47.243Z,59.20
2023-02-14T03:55:17.069Z,60.32
2023-02-14T03:57:59.721Z,60.67
2023-02-14T04:00:28.771Z,60.98
2023-02-14T04:03:01.075Z,61.17
2023-02-14T04:05:28.857Z,61.62
2023-02-14T04:07:58.512Z,61.89
2023-02-14T04:10:26.665Z,61.72
2023-02-14T04:12:54.568Z,61.91
2023-02-14T04:15:22.242Z,63.53
2023-02-14T04:18:08.695Z,66.27
2023-02-14T04:20:37.360Z,64.77
2023-02-14T04:23:05.061Z,60.35
2023-02-14T04:25:32.985Z,54.55
2023-02-14T04:28:00.753Z,52.73
2023-02-14T04:30:28.461Z,53.23
2023-02-14T04:32:56.309Z,53.84
2023-02-14T04:35:24.082Z,55.01
2023-02-14T04:37:52.819Z,55.38
2023-02-14T04:40:20.546Z,55.82
2023-02-14T04:42:48.486Z,57.23
2023-02-14T04:45:16.237Z,57.31
2023-02-14T04:47:44.029Z,57.85
2023-02-14T04:50:12.299Z,57.83
2023-02-14T04:52:40.617Z,58.23
2023-02-14T04:55:09.442Z,58.62
2023-02-14T04:57:37.351Z,58.94
2023-02-14T05:00:08.226Z,59.33
2023-02-14T05:02:37.289Z,59.54
2023-02-14T05:05:05.311Z,59.73
2023-02-14T05:07:33.016Z,61.15
2023-02-14T05:10:00.814Z,60.79
2023-02-14T05:12:29.039Z,60.92
2023-02-14T05:14:57.629Z,60.85
2023-02-14T05:17:25.472Z,60.83
2023-02-14T05:19:53.341Z,61.18
2023-02-14T05:22:21.039Z,61.53
2023-02-14T05:24:48.754Z,61.62
2023-02-14T05:27:16.444Z,62.08
2023-02-14T05:29:44.083Z,65.76
2023-02-14T05:32:11.793Z,66.52
2023-02-14T05:34:39.546Z,60.97
2023-02-14T05:37:07.221Z,56.00
2023-02-14T05:39:34.941Z,54.01
2023-02-14T05:42:03.224Z,54.58
2023-02-14T05:44:30.977Z,55.18
2023-02-14T05:46:58.713Z,55.93
2023-02-14T05:49:26.393Z,56.55
2023-02-14T05:51:54.053Z,57.00
2023-02-14T05:54:21.717Z,57.62
2023-02-14T05:56:49.572Z,58.00
2023-02-14T05:59:17.274Z,58.41
2023-02-14T06:01:44.946Z,58.56
2023-02-14T06:04:12.642Z,59.44
2023-02-14T06:06:40.376Z,59.61
2023-02-14T06:09:08.100Z,59.88
2023-02-14T06:11:35.995Z,60.03
2023-02-14T06:14:04.042Z,60.40
2023-02-14T06:16:32.042Z,60.37
2023-02-14T06:19:00.361Z,60.93
2023-02-14T06:21:28.294Z,60.81
2023-02-14T06:23:56.214Z,60.69
2023-02-14T06:26:27.900Z,61.27
2023-02-14T06:28:57.171Z,61.12
2023-02-14T06:31:25.831Z,61.13
2023-02-14T06:33:54.301Z,61.33
2023-02-14T06:36:22.923Z,61.22
2023-02-14T06:38:50.663Z,61.35
2023-02-14T06:41:18.616Z,61.25
2023-02-14T06:43:50.440Z,61.43
2023-02-14T06:46:19.045Z,61.43
2023-02-14T06:48:47.308Z,61.47
2023-02-14T06:51:15.028Z,61.96
2023-02-14T06:53:42.693Z,61.70
2023-02-14T07:04:18.873Z,69.17
2023-02-14T07:08:10.977Z,61.29
2023-02-14T07:11:26.983Z,52.56
2023-02-14T07:14:05.261Z,52.07
2023-02-14T07:16:39.544Z,53.74
2023-02-14T07:19:12.801Z,55.28
2023-02-14T07:25:29.983Z,55.59
2023-02-14T07:29:35.091Z,58.24
2023-02-14T07:36:36.305Z,59.31
2023-02-14T07:55:11.855Z,62.22
2023-02-14T07:58:56.153Z,67.46
2023-02-14T08:01:53.456Z,60.15
2023-02-14T08:04:25.512Z,52.24
2023-02-14T08:07:52.906Z,52.44
2023-02-14T08:10:39.841Z,52.60
2023-02-14T08:13:25.922Z,54.59
2023-02-14T08:16:34.036Z,54.37
2023-02-14T08:19:24.450Z,55.80
2023-02-14T08:23:04.916Z,57.50
2023-02-14T08:26:30.204Z,57.00
2023-02-14T08:33:38.975Z,59.46
2023-02-14T08:40:08.840Z,60.07
2023-02-14T08:46:46.263Z,61.79
2023-02-14T08:53:47.810Z,62.19
2023-02-14T08:56:38.491Z,67.51
2023-02-14T15:16:07.032Z,56.01
2023-02-14T18:53:45.036Z,57.23
2023-02-14T19:50:09.242Z,57.83
2023-02-14T19:52:37.214Z,57.62
2023-02-14T19:55:05.124Z,57.58
2023-02-14T19:57:32.842Z,57.47
2023-02-14T20:00:00.707Z,57.43
2023-02-14T20:02:28.487Z,57.25
2023-02-14T20:04:59.297Z,57.23
2023-02-14T20:07:26.951Z,57.23
2023-02-14T20:09:54.945Z,57.19
2023-02-14T20:12:22.613Z,57.36
2023-02-14T20:14:54.087Z,57.36
2023-02-14T20:17:21.847Z,57.49
2023-02-14T20:19:49.626Z,57.51
2023-02-14T20:22:17.344Z,57.56
2023-02-14T20:24:45.114Z,57.57
2023-02-14T20:27:12.817Z,57.59
2023-02-14T20:29:43.243Z,57.73
2023-02-14T20:32:13.102Z,57.71
2023-02-14T20:34:40.802Z,57.80
2023-02-14T20:37:11.239Z,57.89
2023-02-14T20:39:39.058Z,58.07
2023-02-14T20:42:08.547Z,58.13
2023-02-14T20:44:36.467Z,58.22
2023-02-14T20:47:05.538Z,58.29
2023-02-14T20:49:35.635Z,58.42
2023-02-14T20:52:03.899Z,58.39
2023-02-14T20:54:31.606Z,58.49
2023-02-14T20:56:59.448Z,58.55
2023-02-14T20:59:28.157Z,58.64
2023-02-14T21:01:57.459Z,58.73
2023-02-14T21:04:25.592Z,58.88
2023-02-14T21:06:53.448Z,58.84
2023-02-14T21:09:21.244Z,58.93
2023-02-14T21:11:50.246Z,59.21
2023-02-14T21:14:17.877Z,59.49
2023-02-14T21:16:45.569Z,59.53
2023-02-14T21:19:13.294Z,59.79
2023-02-14T21:21:41.183Z,59.86
2023-02-14T21:24:14.665Z,59.98
2023-02-14T21:26:42.847Z,60.01
2023-02-14T21:29:10.932Z,59.99
2023-02-14T21:31:39.399Z,60.24
2023-02-14T21:34:07.179Z,60.35
2023-02-14T21:36:35.932Z,60.60
2023-02-14T21:39:05.387Z,60.66
2023-02-14T21:41:33.891Z,61.05
2023-02-14T21:44:03.282Z,61.39
2023-02-14T21:46:33.081Z,61.46
2023-02-14T21:49:20.680Z,61.61
2023-02-14T21:51:48.688Z,61.84
2023-02-14T21:54:17.564Z,66.10
2023-02-14T21:56:45.972Z,68.28
2023-02-14T21:59:13.756Z,62.19
2023-02-14T22:01:42.216Z,54.03
2023-02-14T22:04:12.314Z,51.88
2023-02-14T22:06:41.656Z,52.72
2023-02-14T22:09:11.024Z,54.10
2023-02-14T22:11:38.862Z,54.64
2023-02-14T22:14:06.586Z,56.00
2023-02-14T22:16:36.789Z,56.61
2023-02-14T22:19:06.166Z,57.35
2023-02-14T22:21:34.700Z,57.65
2023-02-14T22:24:02.389Z,58.27
2023-02-14T22:26:34.592Z,58.62
2023-02-14T22:29:03.147Z,59.18
2023-02-14T22:31:38.829Z,59.74
2023-02-14T22:34:08.246Z,60.04
2023-02-14T22:36:36.005Z,60.62
2023-02-14T22:39:04.286Z,61.00
2023-02-14T22:41:37.492Z,61.09
2023-02-14T22:44:06.016Z,61.37
2023-02-14T22:46:36.598Z,61.72
2023-02-14T22:49:05.877Z,61.87
2023-02-14T22:51:35.708Z,61.95
2023-02-14T22:54:12.422Z,65.21
2023-02-14T22:56:51.511Z,68.38
2023-02-14T22:59:21.640Z,61.33
2023-02-14T23:01:50.951Z,55.59
2023-02-14T23:04:21.596Z,53.17
2023-02-14T23:06:49.444Z,53.68
2023-02-14T23:09:17.317Z,54.64
2023-02-14T23:11:46.399Z,55.66
2023-02-14T23:14:34.025Z,56.73
2023-02-14T23:17:14.428Z,57.45
2023-02-14T23:20:01.212Z,57.99
2023-02-14T23:22:40.178Z,58.49
2023-02-14T23:25:10.838Z,59.21
2023-02-14T23:27:44.526Z,59.47
2023-02-14T23:30:15.924Z,59.75
2023-02-14T23:32:44.195Z,60.22
2023-02-14T23:35:11.918Z,60.70
2023-02-14T23:37:39.835Z,61.06
2023-02-14T23:40:08.391Z,61.59
2023-02-14T23:42:36.300Z,61.43
2023-02-14T23:45:22.903Z,61.81
2023-02-14T23:47:50.610Z,66.36
2023-02-14T23:50:18.571Z,67.82
2023-02-14T23:52:46.238Z,60.53
2023-02-14T23:55:13.887Z,53.25
2023-02-14T23:57:41.695Z,52.32
